Time;durP1;ratioP1;P1;durP2;ratioP2;P2;SDS_P1;SDS_P2;PMS_P1;PMS_P2;Temp;Humidity;BMP_temperature;BMP_pressure;BME280_temperature;BME280_humidity;BME280_pressure;Samples;Min_cycle;Max_cycle;Signal;HPM_P1;HPM_P2
2022/05/12 00:01:11;;;;;;;2.57;1.80;;;;;;;;;;4918844;29;20178;-74
2022/05/12 00:03:37;;;;;;;4.90;2.17;;;;;;;;;;4903309;29;20204;-74
2022/05/12 00:06:04;;;;;;;2.90;2.30;;;;;;;;;;4917944;29;20672;-74
2022/05/12 00:08:31;;;;;;;3.42;2.20;;;;;;;;;;4918784;29;20193;-75
2022/05/12 00:10:57;;;;;;;3.57;2.27;;;;;;;;;;4903147;29;20206;-74
2022/05/12 00:13:23;;;;;;;3.50;2.20;;;;;;;;;;4918468;29;20181;-74
2022/05/12 00:15:50;;;;;;;4.80;2.10;;;;;;;;;;4902827;29;20655;-75
2022/05/12 00:18:16;;;;;;;2.80;2.20;;;;;;;;;;4918924;29;20574;-75
2022/05/12 00:20:42;;;;;;;4.77;2.50;;;;;;;;;;4902893;29;20190;-75
2022/05/12 00:23:11;;;;;;;4.00;2.30;;;;;;;;;;4918607;29;20188;-75
2022/05/12 00:25:37;;;;;;;2.47;1.90;;;;;;;;;;4935495;29;20194;-75
2022/05/12 00:28:04;;;;;;;4.17;2.00;;;;;;;;;;4918810;29;20211;-75
2022/05/12 00:30:30;;;;;;;2.60;2.00;;;;;;;;;;4918457;29;20213;-75
2022/05/12 00:32:56;;;;;;;2.20;2.00;;;;;;;;;;4918569;29;20174;-75
2022/05/12 00:38:27;;;;;;;2.80;2.10;;;;;;;;;;4935468;29;20530;-75
2022/05/12 00:40:53;;;;;;;4.03;2.30;;;;;;;;;;4918612;29;20532;-75
2022/05/12 00:43:37;;;;;;;2.40;2.10;;;;;;;;;;4935233;29;20177;-74
2022/05/12 00:46:05;;;;;;;3.37;2.20;;;;;;;;;;4935534;29;20193;-74
2022/05/12 00:48:31;;;;;;;3.10;2.00;;;;;;;;;;4902750;29;20185;-74
2022/05/12 00:50:57;;;;;;;3.43;2.07;;;;;;;;;;4918442;29;20209;-74
2022/05/12 00:53:23;;;;;;;2.03;1.83;;;;;;;;;;4918198;29;20177;-74
2022/05/12 00:55:51;;;;;;;3.30;1.97;;;;;;;;;;4935186;29;20208;-75
2022/05/12 00:58:18;;;;;;;2.97;2.20;;;;;;;;;;4902646;29;20268;-75
2022/05/12 01:00:44;;;;;;;3.27;1.90;;;;;;;;;;4918550;29;20762;-75
2022/05/12 01:03:13;;;;;;;2.57;2.00;;;;;;;;;;4918004;29;20181;-75
2022/05/12 01:05:40;;;;;;;5.30;2.10;;;;;;;;;;4907597;23;20213;-75
2022/05/12 01:08:09;;;;;;;3.27;2.00;;;;;;;;;;4898953;29;20210;-75
2022/05/12 01:10:35;;;;;;;3.33;1.93;;;;;;;;;;4883168;29;20221;-75
2022/05/12 01:13:01;;;;;;;3.73;2.17;;;;;;;;;;4898418;29;20182;-75
2022/05/12 01:15:27;;;;;;;3.63;2.20;;;;;;;;;;4898512;29;20189;-75
2022/05/12 01:18:15;;;;;;;2.50;2.00;;;;;;;;;;4886529;29;20285;-75
2022/05/12 01:20:41;;;;;;;4.20;1.93;;;;;;;;;;4919539;29;20179;-75
2022/05/12 01:23:22;;;;;;;2.10;1.80;;;;;;;;;;4902180;29;20256;-75
2022/05/12 01:25:49;;;;;;;2.23;2.00;;;;;;;;;;4902191;29;20245;-75
2022/05/12 01:28:15;;;;;;;2.40;1.93;;;;;;;;;;4919056;29;20167;-75
2022/05/12 01:30:41;;;;;;;2.37;1.80;;;;;;;;;;4919087;29;20292;-75
2022/05/12 01:33:07;;;;;;;1.83;1.70;;;;;;;;;;4902074;29;20178;-75
2022/05/12 01:35:33;;;;;;;2.10;1.67;;;;;;;;;;4901722;29;20260;-75
2022/05/12 01:37:59;;;;;;;2.67;1.70;;;;;;;;;;4919043;29;20170;-75
2022/05/12 01:40:26;;;;;;;2.60;1.70;;;;;;;;;;4901979;29;20235;-75
2022/05/12 01:42:53;;;;;;;3.17;2.00;;;;;;;;;;4886302;29;20186;-75
2022/05/12 01:45:20;;;;;;;3.40;1.80;;;;;;;;;;4886559;29;20189;-75
2022/05/12 01:47:47;;;;;;;3.87;1.87;;;;;;;;;;4901897;29;20681;-75
2022/05/12 01:50:14;;;;;;;2.80;1.67;;;;;;;;;;4886370;29;20221;-75
2022/05/12 01:52:43;;;;;;;3.00;1.80;;;;;;;;;;4901574;29;20646;-75
2022/05/12 01:55:10;;;;;;;2.90;1.73;;;;;;;;;;4901837;29;20179;-75
2022/05/12 01:57:36;;;;;;;1.50;1.40;;;;;;;;;;4901907;29;20205;-75
2022/05/12 02:00:04;;;;;;;2.80;1.90;;;;;;;;;;4886432;29;20266;-75
2022/05/12 02:02:30;;;;;;;2.07;1.50;;;;;;;;;;4886055;29;20190;-75
2022/05/12 02:04:56;;;;;;;2.60;1.67;;;;;;;;;;4885971;29;20259;-75
2022/05/12 02:07:22;;;;;;;2.57;1.70;;;;;;;;;;4885982;29;20230;-75
2022/05/12 02:09:48;;;;;;;3.80;1.83;;;;;;;;;;4885880;29;20364;-75
2022/05/12 02:12:14;;;;;;;2.17;1.67;;;;;;;;;;4885655;29;20178;-75
2022/05/12 02:14:40;;;;;;;3.30;1.90;;;;;;;;;;4901588;29;20665;-75
2022/05/12 02:17:07;;;;;;;3.00;2.00;;;;;;;;;;4885930;29;20206;-75
2022/05/12 02:19:33;;;;;;;3.60;1.60;;;;;;;;;;4901483;29;20201;-75
2022/05/12 02:22:02;;;;;;;3.27;1.63;;;;;;;;;;4901148;29;20193;-75
2022/05/12 02:24:28;;;;;;;2.13;1.80;;;;;;;;;;4918107;29;20256;-75
2022/05/12 02:26:56;;;;;;;4.33;1.70;;;;;;;;;;4885664;29;20304;-75
2022/05/12 02:29:22;;;;;;;3.13;1.60;;;;;;;;;;4884924;29;20531;-75
2022/05/12 02:31:49;;;;;;;5.17;1.67;;;;;;;;;;4885632;29;20182;-75
2022/05/12 02:34:17;;;;;;;2.17;1.70;;;;;;;;;;4901073;29;20207;-75
2022/05/12 02:36:59;;;;;;;2.20;1.60;;;;;;;;;;4885458;29;20274;-75
2022/05/12 02:39:26;;;;;;;1.97;1.50;;;;;;;;;;4887683;29;20506;-75
2022/05/12 02:41:52;;;;;;;2.07;1.60;;;;;;;;;;4900970;29;20205;-75
2022/05/12 02:44:18;;;;;;;4.73;1.77;;;;;;;;;;4885522;29;20202;-75
2022/05/12 02:46:44;;;;;;;4.10;1.90;;;;;;;;;;4900791;29;20194;-75
2022/05/12 02:49:10;;;;;;;2.40;1.70;;;;;;;;;;4885206;29;20182;-75
2022/05/12 02:51:36;;;;;;;3.53;2.10;;;;;;;;;;4885380;29;20255;-75
2022/05/12 02:54:03;;;;;;;3.33;2.00;;;;;;;;;;4885110;29;20187;-75
2022/05/12 02:56:29;;;;;;;6.67;2.27;;;;;;;;;;4917590;29;20186;-75
2022/05/12 02:58:55;;;;;;;4.97;2.10;;;;;;;;;;4900702;29;20227;-75
2022/05/12 03:01:21;;;;;;;4.23;2.30;;;;;;;;;;4885042;29;20186;-75
2022/05/12 03:03:47;;;;;;;3.40;2.30;;;;;;;;;;4884972;29;20183;-75
2022/05/12 03:06:13;;;;;;;4.43;2.23;;;;;;;;;;4900341;29;20225;-75
2022/05/12 03:08:43;;;;;;;2.40;2.20;;;;;;;;;;4900698;29;20270;-75
2022/05/12 03:11:09;;;;;;;4.57;2.10;;;;;;;;;;4885335;29;20210;-75
2022/05/12 03:13:35;;;;;;;3.90;2.00;;;;;;;;;;4900280;29;20601;-75
2022/05/12 03:16:02;;;;;;;4.07;2.03;;;;;;;;;;4917290;29;20194;-75
2022/05/12 03:18:29;;;;;;;5.37;2.40;;;;;;;;;;4884821;29;20282;-75
2022/05/12 03:20:55;;;;;;;3.50;2.03;;;;;;;;;;4900241;29;20216;-75
2022/05/12 03:23:23;;;;;;;5.50;2.20;;;;;;;;;;4916866;29;20545;-75
2022/05/12 03:25:51;;;;;;;2.30;2.10;;;;;;;;;;4900135;29;20595;-75
2022/05/12 03:28:17;;;;;;;4.90;2.20;;;;;;;;;;4900191;29;20186;-75
2022/05/12 03:30:43;;;;;;;3.20;2.00;;;;;;;;;;4899822;29;20241;-75
2022/05/12 03:33:10;;;;;;;3.73;2.60;;;;;;;;;;4899867;29;20210;-75
2022/05/12 03:35:36;;;;;;;3.27;1.90;;;;;;;;;;4884591;29;20183;-75
2022/05/12 03:38:03;;;;;;;6.77;2.27;;;;;;;;;;4900168;29;20183;-75
2022/05/12 03:40:30;;;;;;;3.07;1.80;;;;;;;;;;4899584;29;20182;-75
2022/05/12 03:42:59;;;;;;;4.13;2.20;;;;;;;;;;4899614;29;20237;-75
2022/05/12 03:45:26;;;;;;;4.40;2.10;;;;;;;;;;4916557;29;20186;-75
2022/05/12 03:47:54;;;;;;;4.20;2.00;;;;;;;;;;4899939;29;20186;-75
2022/05/12 03:50:22;;;;;;;3.63;2.30;;;;;;;;;;4899642;29;20655;-75
2022/05/12 03:52:49;;;;;;;4.17;2.20;;;;;;;;;;4884031;29;20183;-75
2022/05/12 03:55:16;;;;;;;4.00;2.20;;;;;;;;;;4884221;29;20214;-75
2022/05/12 03:57:44;;;;;;;7.20;2.67;;;;;;;;;;4884111;29;20682;-75
2022/05/12 04:00:11;;;;;;;5.27;2.40;;;;;;;;;;4899406;29;20186;-75
2022/05/12 04:02:38;;;;;;;2.53;2.13;;;;;;;;;;4884216;29;20194;-75
2022/05/12 04:05:05;;;;;;;2.40;2.00;;;;;;;;;;4899573;29;20246;-75
2022/05/12 04:07:31;;;;;;;3.07;2.07;;;;;;;;;;4916606;29;20245;-75
2022/05/12 04:10:00;;;;;;;3.03;2.00;;;;;;;;;;4899633;29;20269;-75
2022/05/12 04:12:26;;;;;;;4.37;2.43;;;;;;;;;;4899197;29;20179;-75
2022/05/12 04:14:52;;;;;;;4.67;1.90;;;;;;;;;;4883741;29;20194;-75
2022/05/12 04:17:19;;;;;;;3.03;1.80;;;;;;;;;;4916254;29;20205;-75
2022/05/12 04:19:45;;;;;;;3.53;1.60;;;;;;;;;;4899128;29;20568;-75
2022/05/12 04:22:13;;;;;;;2.20;1.70;;;;;;;;;;4898982;29;20680;-75
2022/05/12 04:24:39;;;;;;;2.87;1.90;;;;;;;;;;4883873;29;20277;-75
2022/05/12 04:27:06;;;;;;;2.53;1.90;;;;;;;;;;4883644;29;20210;-75
2022/05/12 04:29:33;;;;;;;5.07;1.80;;;;;;;;;;4883638;29;20194;-75
2022/05/12 04:31:59;;;;;;;2.73;2.00;;;;;;;;;;4899181;29;20261;-75
2022/05/12 04:37:10;;;;;;;3.30;1.87;;;;;;;;;;4901963;29;20205;-75
2022/05/12 04:39:37;;;;;;;2.03;1.80;;;;;;;;;;4883586;29;20182;-75
2022/05/12 04:42:03;;;;;;;3.07;1.90;;;;;;;;;;4883793;29;20179;-75
2022/05/12 04:44:29;;;;;;;3.90;2.10;;;;;;;;;;4883600;29;20238;-75
2022/05/12 04:46:55;;;;;;;2.33;1.90;;;;;;;;;;4898992;29;20210;-75
2022/05/12 04:49:22;;;;;;;3.60;2.10;;;;;;;;;;4898853;29;20536;-75
2022/05/12 04:51:49;;;;;;;3.40;1.90;;;;;;;;;;4900591;29;20217;-75
2022/05/12 04:54:15;;;;;;;3.73;2.30;;;;;;;;;;4887346;29;20182;-75
2022/05/12 04:56:41;;;;;;;5.13;2.20;;;;;;;;;;4902628;29;20717;-75
2022/05/12 04:59:08;;;;;;;3.80;1.87;;;;;;;;;;4919651;29;20177;-77
2022/05/12 05:01:34;;;;;;;3.47;1.90;;;;;;;;;;4902699;29;20193;-76
2022/05/12 05:04:03;;;;;;;3.63;2.00;;;;;;;;;;4902681;29;20186;-76
2022/05/12 05:06:29;;;;;;;3.40;2.00;;;;;;;;;;4902397;29;20272;-77
2022/05/12 05:08:55;;;;;;;3.33;1.80;;;;;;;;;;4919492;29;20650;-77
2022/05/12 05:11:22;;;;;;;3.20;1.80;;;;;;;;;;4902465;29;20305;-76
2022/05/12 05:13:48;;;;;;;3.77;1.90;;;;;;;;;;4902104;29;20202;-76
2022/05/12 05:16:15;;;;;;;3.90;2.10;;;;;;;;;;4902267;29;20198;-76
2022/05/12 05:18:41;;;;;;;2.20;2.00;;;;;;;;;;4919640;29;20241;-77
2022/05/12 05:21:08;;;;;;;3.87;2.00;;;;;;;;;;4902352;29;20182;-76
2022/05/12 05:23:34;;;;;;;2.57;2.20;;;;;;;;;;4886998;29;20186;-76
2022/05/12 05:26:00;;;;;;;5.33;2.20;;;;;;;;;;4902499;29;20210;-76
2022/05/12 05:28:26;;;;;;;3.03;2.00;;;;;;;;;;4902491;29;20175;-76
2022/05/12 05:30:52;;;;;;;4.90;2.30;;;;;;;;;;4886703;29;20685;-76
2022/05/12 05:33:19;;;;;;;2.77;2.13;;;;;;;;;;4902270;29;20234;-77
2022/05/12 05:35:45;;;;;;;3.83;2.10;;;;;;;;;;4902002;29;20202;-77
2022/05/12 05:38:11;;;;;;;2.77;2.30;;;;;;;;;;4886604;29;20272;-76
2022/05/12 05:40:37;;;;;;;4.57;2.40;;;;;;;;;;4902022;29;20182;-76
2022/05/12 05:43:04;;;;;;;3.53;2.37;;;;;;;;;;4901726;29;20187;-75
2022/05/12 05:45:30;;;;;;;2.33;2.10;;;;;;;;;;4901951;29;20182;-76
2022/05/12 05:47:58;;;;;;;4.43;2.40;;;;;;;;;;4902139;29;20190;-76
2022/05/12 05:53:23;;;;;;;4.07;2.00;;;;;;;;;;4901758;29;20206;-76
2022/05/12 05:53:25;;;;;;;4.73;2.23;;;;;;;;;;4918508;29;20191;-76
2022/05/12 05:55:56;;;;;;;2.73;2.23;;;;;;;;;;4901771;29;20208;-76
2022/05/12 05:58:22;;;;;;;3.87;2.40;;;;;;;;;;4901962;29;20183;-76
2022/05/12 06:00:48;;;;;;;3.60;2.20;;;;;;;;;;4886133;29;20183;-76
2022/05/12 06:03:14;;;;;;;2.33;2.13;;;;;;;;;;4901229;29;20653;-76
2022/05/12 06:05:41;;;;;;;3.23;2.30;;;;;;;;;;4918539;29;20183;-76
2022/05/12 06:08:09;;;;;;;3.23;2.50;;;;;;;;;;4901649;29;20613;-76
2022/05/12 06:10:35;;;;;;;3.10;2.50;;;;;;;;;;4901340;29;20202;-76
2022/05/12 06:13:03;;;;;;;4.17;2.50;;;;;;;;;;4885883;29;20189;-76
2022/05/12 06:15:29;;;;;;;2.97;2.57;;;;;;;;;;4901655;29;20557;-76
2022/05/12 06:17:55;;;;;;;3.83;2.20;;;;;;;;;;4901263;29;20218;-76
2022/05/12 06:20:22;;;;;;;3.40;2.27;;;;;;;;;;4901534;29;20202;-76
2022/05/12 06:22:48;;;;;;;3.23;2.40;;;;;;;;;;4901244;29;20251;-76
2022/05/12 06:25:16;;;;;;;3.23;1.93;;;;;;;;;;4918069;29;20206;-76
2022/05/12 06:27:43;;;;;;;3.40;2.27;;;;;;;;;;4885796;29;20701;-76
2022/05/12 06:30:12;;;;;;;5.33;2.30;;;;;;;;;;4901054;29;20211;-76
2022/05/12 06:32:42;;;;;;;2.30;2.10;;;;;;;;;;4885775;29;20183;-76
2022/05/12 06:35:09;;;;;;;3.80;2.20;;;;;;;;;;4901118;29;20210;-76
2022/05/12 06:37:35;;;;;;;3.23;2.10;;;;;;;;;;4917956;29;20271;-76
2022/05/12 06:40:01;;;;;;;3.97;2.40;;;;;;;;;;4901047;29;20186;-76
2022/05/12 06:42:27;;;;;;;2.57;2.17;;;;;;;;;;4885206;29;20186;-76
2022/05/12 06:44:54;;;;;;;3.67;2.30;;;;;;;;;;4885518;29;20211;-76
2022/05/12 06:47:20;;;;;;;3.80;2.20;;;;;;;;;;4885529;29;20210;-76
2022/05/12 06:49:50;;;;;;;3.67;2.27;;;;;;;;;;4900752;29;20212;-75
2022/05/12 06:52:16;;;;;;;6.67;2.27;;;;;;;;;;4900730;29;20251;-75
2022/05/12 06:54:43;;;;;;;2.57;2.00;;;;;;;;;;4917780;29;20201;-76
2022/05/12 06:57:10;;;;;;;2.47;2.20;;;;;;;;;;4900902;29;20290;-76
2022/05/12 06:59:37;;;;;;;3.30;2.10;;;;;;;;;;4900910;29;20179;-76
2022/05/12 07:02:04;;;;;;;3.03;2.30;;;;;;;;;;4917303;29;20181;-76
2022/05/12 07:04:31;;;;;;;3.07;2.07;;;;;;;;;;4917549;29;20174;-75
2022/05/12 07:06:57;;;;;;;2.70;2.00;;;;;;;;;;4922566;23;20254;-75
2022/05/12 07:09:24;;;;;;;3.53;2.00;;;;;;;;;;4900619;29;20626;-76
2022/05/12 07:11:50;;;;;;;2.83;2.17;;;;;;;;;;4900001;29;20188;-75
2022/05/12 07:14:17;;;;;;;3.50;2.20;;;;;;;;;;4884413;29;20182;-75
2022/05/12 07:16:47;;;;;;;2.40;2.20;;;;;;;;;;4900242;29;20266;-75
2022/05/12 07:19:15;;;;;;;2.90;2.13;;;;;;;;;;4900546;29;20182;-77
2022/05/12 07:27:12;;;;;;;5.67;2.53;;;;;;;;;;4903084;29;20595;-77
2022/05/12 07:29:38;;;;;;;2.20;2.00;;;;;;;;;;4884646;29;20649;-77
2022/05/12 07:32:04;;;;;;;3.30;2.30;;;;;;;;;;4899931;29;20182;-77
2022/05/12 07:34:30;;;;;;;3.60;2.33;;;;;;;;;;4900156;29;20178;-77
2022/05/12 07:36:57;;;;;;;2.37;2.10;;;;;;;;;;4884409;29;20575;-77
2022/05/12 07:39:28;;;;;;;3.07;2.10;;;;;;;;;;4900101;29;20189;-76
2022/05/12 07:41:55;;;;;;;2.33;2.13;;;;;;;;;;4884665;29;20610;-76
2022/05/12 07:44:21;;;;;;;2.50;2.30;;;;;;;;;;4900310;29;20309;-76
2022/05/12 07:46:48;;;;;;;3.13;2.30;;;;;;;;;;4899960;29;20195;-76
2022/05/12 07:49:14;;;;;;;3.60;2.33;;;;;;;;;;4899677;29;20269;-76
2022/05/12 07:51:40;;;;;;;3.93;2.30;;;;;;;;;;4899661;29;20229;-76
2022/05/12 07:54:06;;;;;;;2.50;2.27;;;;;;;;;;4899690;29;20189;-76
2022/05/12 07:56:33;;;;;;;3.63;2.00;;;;;;;;;;4899819;29;20198;-76
2022/05/12 07:58:59;;;;;;;3.07;2.03;;;;;;;;;;4899605;29;20183;-76
2022/05/12 08:01:26;;;;;;;3.53;2.53;;;;;;;;;;4899952;29;20629;-76
2022/05/12 08:03:53;;;;;;;2.80;2.10;;;;;;;;;;4899609;29;20186;-76
2022/05/12 08:06:20;;;;;;;2.57;2.33;;;;;;;;;;4899502;29;20221;-75
2022/05/12 08:08:48;;;;;;;3.77;2.30;;;;;;;;;;4899359;29;20250;-75
2022/05/12 08:11:15;;;;;;;2.33;2.00;;;;;;;;;;4883875;29;20222;-79
2022/05/12 08:13:43;;;;;;;3.57;2.07;;;;;;;;;;4883827;29;20229;-76
2022/05/12 08:16:09;;;;;;;2.30;2.10;;;;;;;;;;4884130;29;20230;-76
2022/05/12 08:18:38;;;;;;;2.70;2.10;;;;;;;;;;4899246;29;20194;-76
2022/05/12 08:21:05;;;;;;;2.50;2.30;;;;;;;;;;4884268;29;20190;-76
2022/05/12 08:23:31;;;;;;;2.50;2.30;;;;;;;;;;4899298;29;20238;-75
2022/05/12 08:25:57;;;;;;;2.40;2.20;;;;;;;;;;4898300;29;20646;-77
2022/05/12 08:28:24;;;;;;;2.40;2.20;;;;;;;;;;4883706;29;20281;-76
2022/05/12 08:30:51;;;;;;;3.00;2.27;;;;;;;;;;4899004;29;20202;-76
2022/05/12 08:33:17;;;;;;;2.50;2.00;;;;;;;;;;4899165;29;20538;-76
2022/05/12 08:35:43;;;;;;;3.40;2.30;;;;;;;;;;4899005;29;20219;-76
2022/05/12 08:38:10;;;;;;;2.70;2.47;;;;;;;;;;4899095;29;20175;-77
2022/05/12 08:40:52;;;;;;;3.30;2.30;;;;;;;;;;4899031;29;20229;-77
2022/05/12 08:43:22;;;;;;;3.30;2.20;;;;;;;;;;4915794;29;20199;-77
2022/05/12 08:45:50;;;;;;;3.03;2.30;;;;;;;;;;4898900;29;20647;-77
2022/05/12 08:48:16;;;;;;;3.83;2.20;;;;;;;;;;4915516;29;20646;-77
2022/05/12 08:50:50;;;;;;;2.50;2.30;;;;;;;;;;4883412;29;20210;-77
2022/05/12 08:53:17;;;;;;;3.03;2.50;;;;;;;;;;4898984;29;20175;-76
2022/05/12 08:55:49;;;;;;;3.37;2.20;;;;;;;;;;4883356;29;20187;-76
2022/05/12 08:58:18;;;;;;;2.60;2.40;;;;;;;;;;4883536;29;20178;-76
2022/05/12 09:00:50;;;;;;;2.40;2.20;;;;;;;;;;4899409;29;20186;-76
2022/05/12 09:03:39;;;;;;;2.97;2.07;;;;;;;;;;4898957;29;20186;-77
2022/05/12 09:06:05;;;;;;;2.63;2.20;;;;;;;;;;4898700;29;20206;-76
2022/05/12 09:08:35;;;;;;;4.33;2.30;;;;;;;;;;4898708;29;20183;-76
2022/05/12 09:11:07;;;;;;;2.10;1.90;;;;;;;;;;4898615;29;20217;-76
2022/05/12 09:13:42;;;;;;;4.67;2.03;;;;;;;;;;4898411;29;20175;-76
2022/05/12 09:16:11;;;;;;;2.20;1.97;;;;;;;;;;4915709;29;20194;-76
2022/05/12 09:18:39;;;;;;;2.40;1.90;;;;;;;;;;4898816;29;20182;-76
2022/05/12 09:21:07;;;;;;;2.43;2.07;;;;;;;;;;4898677;29;20213;-76
2022/05/12 09:23:33;;;;;;;4.50;2.47;;;;;;;;;;4898778;29;20186;-77
2022/05/12 09:25:59;;;;;;;4.70;2.10;;;;;;;;;;4883105;29;20191;-77
2022/05/12 09:28:25;;;;;;;3.40;1.90;;;;;;;;;;4898890;29;20190;-76
2022/05/12 09:30:52;;;;;;;3.70;1.97;;;;;;;;;;4898620;29;20234;-76
2022/05/12 09:33:35;;;;;;;2.50;2.10;;;;;;;;;;4898437;29;20228;-77
2022/05/12 09:36:04;;;;;;;2.10;1.90;;;;;;;;;;4915434;29;20185;-76
2022/05/12 09:38:30;;;;;;;2.30;2.07;;;;;;;;;;4901078;29;20174;-76
2022/05/12 09:40:57;;;;;;;2.53;1.90;;;;;;;;;;4919010;29;20175;-76
2022/05/12 09:43:29;;;;;;;3.23;2.07;;;;;;;;;;4901856;29;20216;-76
2022/05/12 09:46:04;;;;;;;3.83;2.40;;;;;;;;;;4918820;29;20181;-76
2022/05/12 09:48:32;;;;;;;3.20;2.00;;;;;;;;;;4919164;29;20254;-76
2022/05/12 09:51:16;;;;;;;3.17;2.13;;;;;;;;;;4902079;29;20265;-77
2022/05/12 09:53:42;;;;;;;2.37;1.90;;;;;;;;;;4918648;29;20655;-78
2022/05/12 09:56:18;;;;;;;3.53;2.13;;;;;;;;;;4886263;29;20216;-77
2022/05/12 09:59:07;;;;;;;5.37;2.33;;;;;;;;;;4902034;29;20193;-77
2022/05/12 10:01:33;;;;;;;5.13;2.10;;;;;;;;;;4906719;29;20190;-77
2022/05/12 10:10:28;;;;;;;2.67;2.20;;;;;;;;;;4823227;29;20213;-77
2022/05/12 10:12:59;;;;;;;2.93;2.20;;;;;;;;;;4823090;29;20173;-77
2022/05/12 10:15:30;;;;;;;4.07;2.10;;;;;;;;;;4868234;29;20338;-76
2022/05/12 10:18:04;;;;;;;4.73;2.23;;;;;;;;;;4901497;29;20646;-77
2022/05/12 10:20:33;;;;;;;2.77;2.00;;;;;;;;;;4901350;29;20189;-77
2022/05/12 10:23:06;;;;;;;2.10;1.90;;;;;;;;;;4918005;29;20183;-77
2022/05/12 10:25:47;;;;;;;2.97;2.00;;;;;;;;;;4901180;29;20182;-77
2022/05/12 10:28:19;;;;;;;2.33;1.83;;;;;;;;;;4901189;29;20182;-77
2022/05/12 10:30:56;;;;;;;6.07;1.97;;;;;;;;;;4918208;29;20206;-77
2022/05/12 10:33:30;;;;;;;5.20;1.97;;;;;;;;;;4901051;29;20186;-77
2022/05/12 10:36:00;;;;;;;2.10;1.90;;;;;;;;;;4917887;29;20292;-77
2022/05/12 10:38:27;;;;;;;3.57;1.93;;;;;;;;;;4901249;29;20183;-77
2022/05/12 10:40:58;;;;;;;2.17;1.87;;;;;;;;;;4900980;29;20273;-77
2022/05/12 10:43:45;;;;;;;2.67;1.80;;;;;;;;;;4917715;29;20182;-76
2022/05/12 10:46:17;;;;;;;1.80;1.70;;;;;;;;;;4900620;29;20257;-76
2022/05/12 10:48:54;;;;;;;2.08;1.85;;;;;;;;;;4900234;29;20281;-76
2022/05/12 10:51:20;;;;;;;3.72;1.90;;;;;;;;;;4899952;29;20224;-77
2022/05/12 10:54:09;;;;;;;2.55;1.83;;;;;;;;;;4900141;29;20177;-76
2022/05/12 10:57:03;;;;;;;3.30;1.80;;;;;;;;;;4900684;29;20245;-76
2022/05/12 10:59:53;;;;;;;2.53;1.90;;;;;;;;;;4889441;29;20183;-76
2022/05/12 11:02:22;;;;;;;2.50;1.90;;;;;;;;;;4900532;29;20181;-76
2022/05/12 11:04:51;;;;;;;2.78;2.05;;;;;;;;;;4917518;29;20182;-76
2022/05/12 11:07:23;;;;;;;2.80;1.90;;;;;;;;;;4885045;29;20218;-76
2022/05/12 11:09:51;;;;;;;2.10;1.90;;;;;;;;;;4917566;29;20197;-77
2022/05/12 11:12:17;;;;;;;3.67;2.10;;;;;;;;;;4900523;29;20183;-76
2022/05/12 11:14:49;;;;;;;2.28;1.83;;;;;;;;;;4917497;29;20171;-76
2022/05/12 11:17:18;;;;;;;1.83;1.60;;;;;;;;;;4917341;29;20199;-77
2022/05/12 11:19:48;;;;;;;1.65;1.55;;;;;;;;;;4900240;29;20206;-77
2022/05/12 11:22:14;;;;;;;2.40;1.90;;;;;;;;;;4900076;29;20178;-76
2022/05/12 11:24:45;;;;;;;2.15;1.85;;;;;;;;;;4900205;29;20178;-76
2022/05/12 11:27:30;;;;;;;1.80;1.70;;;;;;;;;;4900261;29;20202;-76
2022/05/12 11:30:14;;;;;;;2.97;2.10;;;;;;;;;;4900108;29;20677;-76
2022/05/12 11:32:43;;;;;;;2.08;1.88;;;;;;;;;;4899843;29;20182;-76
2022/05/12 11:35:24;;;;;;;2.90;1.88;;;;;;;;;;4900268;29;20190;-76
2022/05/12 11:37:50;;;;;;;4.32;1.80;;;;;;;;;;4900052;29;20272;-76
2022/05/12 11:40:35;;;;;;;2.78;1.90;;;;;;;;;;4899960;29;20185;-76
2022/05/12 11:45:49;;;;;;;3.15;1.70;;;;;;;;;;4916971;29;20200;-76
2022/05/12 11:48:15;;;;;;;3.67;1.60;;;;;;;;;;4899758;29;20182;-76
2022/05/12 11:50:44;;;;;;;3.30;1.50;;;;;;;;;;4899615;29;20261;-76
2022/05/12 11:53:21;;;;;;;1.60;1.40;;;;;;;;;;4899088;29;20182;-77
2022/05/12 11:56:06;;;;;;;2.15;1.60;;;;;;;;;;4884301;29;20233;-76
2022/05/12 11:58:34;;;;;;;2.92;1.60;;;;;;;;;;4916775;29;20210;-76
2022/05/12 12:01:02;;;;;;;2.58;1.60;;;;;;;;;;4899441;29;20183;-77
2022/05/12 12:03:27;;;;;;;1.92;1.70;;;;;;;;;;4899610;29;20175;-76
2022/05/12 12:05:53;;;;;;;2.42;1.50;;;;;;;;;;4899466;29;20266;-76
2022/05/12 12:08:32;;;;;;;3.30;1.80;;;;;;;;;;4899660;29;20178;-76
2022/05/12 12:11:17;;;;;;;2.08;1.73;;;;;;;;;;4899291;29;20262;-76
2022/05/12 12:13:44;;;;;;;2.22;1.70;;;;;;;;;;4899251;29;20325;-76
2022/05/12 12:16:10;;;;;;;1.77;1.67;;;;;;;;;;4884067;29;20229;-76
2022/05/12 12:18:39;;;;;;;2.58;1.60;;;;;;;;;;4899485;29;20213;-76
2022/05/12 12:21:24;;;;;;;2.28;1.65;;;;;;;;;;4899355;29;20233;-76
2022/05/12 12:23:58;;;;;;;2.63;1.55;;;;;;;;;;4916015;29;20253;-76
2022/05/12 12:26:24;;;;;;;1.92;1.50;;;;;;;;;;4899325;29;20214;-76
2022/05/12 12:28:59;;;;;;;2.08;1.50;;;;;;;;;;4916165;29;20183;-76
2022/05/12 12:31:40;;;;;;;2.25;1.38;;;;;;;;;;4899252;29;20240;-76
2022/05/12 12:34:06;;;;;;;3.28;1.50;;;;;;;;;;4899124;29;20185;-76
2022/05/12 12:36:35;;;;;;;2.03;1.55;;;;;;;;;;4898977;29;20202;-76
2022/05/12 12:39:01;;;;;;;2.90;1.63;;;;;;;;;;4899015;29;20217;-76
2022/05/12 12:41:30;;;;;;;1.60;1.50;;;;;;;;;;4899255;29;20185;-76
2022/05/12 12:43:57;;;;;;;2.00;1.60;;;;;;;;;;4898882;29;20251;-76
2022/05/12 12:46:29;;;;;;;1.98;1.50;;;;;;;;;;4883565;29;20198;-76
2022/05/12 12:49:09;;;;;;;1.88;1.70;;;;;;;;;;4898891;29;20269;-76
2022/05/12 12:51:36;;;;;;;1.80;1.50;;;;;;;;;;4899122;29;20292;-76
2022/05/12 12:57:09;;;;;;;2.40;1.70;;;;;;;;;;4916043;29;20201;-76
2022/05/12 12:59:37;;;;;;;1.50;1.40;;;;;;;;;;4915741;29;20209;-76
2022/05/12 13:02:03;;;;;;;2.72;1.67;;;;;;;;;;4915891;29;20233;-76
2022/05/12 13:04:31;;;;;;;1.60;1.50;;;;;;;;;;4899090;29;20187;-76
2022/05/12 13:07:09;;;;;;;1.50;1.40;;;;;;;;;;4883942;29;20277;-76
2022/05/12 13:09:44;;;;;;;2.40;1.67;;;;;;;;;;4898985;29;20601;-75
2022/05/12 13:12:10;;;;;;;2.25;1.55;;;;;;;;;;4899440;29;20269;-76
2022/05/12 13:14:38;;;;;;;2.22;1.70;;;;;;;;;;4902805;29;20261;-75
2022/05/12 18:07:59;;;;;;;1.63;1.40;;;;;;;;;;4943454;23;20652;-73
2022/05/12 18:10:25;;;;;;;3.25;1.58;;;;;;;;;;4901924;29;20218;-72
2022/05/12 18:12:51;;;;;;;2.00;1.40;;;;;;;;;;4886584;29;20285;-72
2022/05/12 18:15:18;;;;;;;1.92;1.50;;;;;;;;;;4887066;29;20178;-74
2022/05/12 18:20:16;;;;;;;2.03;1.45;;;;;;;;;;4950120;23;20795;-75
2022/05/12 18:22:42;;;;;;;2.42;1.30;;;;;;;;;;4901671;29;20214;-78
2022/05/12 18:25:08;;;;;;;2.05;1.60;;;;;;;;;;4886637;29;20213;-80
2022/05/12 18:27:34;;;;;;;3.83;1.50;;;;;;;;;;4886976;29;20185;-78
2022/05/12 18:30:00;;;;;;;1.52;1.42;;;;;;;;;;4901561;29;20201;-78
2022/05/12 18:32:26;;;;;;;2.33;1.27;;;;;;;;;;4901435;29;20174;-78
2022/05/12 18:34:52;;;;;;;2.67;1.50;;;;;;;;;;4885957;29;20187;-78
2022/05/12 18:37:18;;;;;;;4.03;1.60;;;;;;;;;;4885620;29;20190;-78
2022/05/12 18:39:44;;;;;;;2.42;1.38;;;;;;;;;;4901321;29;20246;-78
2022/05/12 18:42:10;;;;;;;1.75;1.50;;;;;;;;;;4885486;29;20187;-78
2022/05/12 18:44:36;;;;;;;3.08;1.60;;;;;;;;;;4901630;29;20178;-78
2022/05/12 18:47:03;;;;;;;2.47;1.52;;;;;;;;;;4885772;29;20829;-78
2022/05/12 18:49:29;;;;;;;2.97;1.52;;;;;;;;;;4918492;29;20190;-78
2022/05/12 18:51:55;;;;;;;3.17;1.80;;;;;;;;;;4885621;29;20209;-78
2022/05/12 18:54:21;;;;;;;2.25;1.60;;;;;;;;;;4885704;29;20201;-78
2022/05/12 18:56:47;;;;;;;2.10;1.70;;;;;;;;;;4901040;29;20202;-78
2022/05/12 18:59:14;;;;;;;2.00;1.60;;;;;;;;;;4885445;29;20206;-78
2022/05/12 19:01:40;;;;;;;2.97;1.73;;;;;;;;;;4901034;29;20178;-78
2022/05/12 19:04:06;;;;;;;3.08;1.67;;;;;;;;;;4885174;29;20186;-78
2022/05/12 19:06:32;;;;;;;2.20;1.55;;;;;;;;;;4885310;29;20190;-77
2022/05/12 19:08:59;;;;;;;1.98;1.60;;;;;;;;;;4900634;29;20205;-78
2022/05/12 19:11:25;;;;;;;2.10;1.90;;;;;;;;;;4899764;29;20210;-78
2022/05/12 19:13:51;;;;;;;2.87;1.70;;;;;;;;;;4885062;29;20641;-78
2022/05/12 19:16:17;;;;;;;1.83;1.70;;;;;;;;;;4917379;29;20181;-78
2022/05/12 19:18:44;;;;;;;2.17;1.80;;;;;;;;;;4917224;29;20228;-78
2022/05/12 19:21:10;;;;;;;2.30;1.80;;;;;;;;;;4917221;29;20261;-78
2022/05/12 19:23:36;;;;;;;3.47;1.97;;;;;;;;;;4884953;29;20190;-77
2022/05/12 19:26:02;;;;;;;3.07;2.13;;;;;;;;;;4917169;29;20178;-77
2022/05/12 19:28:28;;;;;;;2.70;1.90;;;;;;;;;;4900094;29;20205;-77
2022/05/12 19:30:54;;;;;;;3.60;2.10;;;;;;;;;;4900176;29;20681;-77
2022/05/12 19:33:20;;;;;;;3.17;2.20;;;;;;;;;;4899834;29;20245;-77
2022/05/12 19:35:47;;;;;;;3.27;2.03;;;;;;;;;;4900231;29;20178;-77
2022/05/12 19:38:13;;;;;;;2.30;2.10;;;;;;;;;;4899894;29;20225;-77
2022/05/12 19:40:45;;;;;;;2.50;1.63;;;;;;;;;;4900090;29;20182;-77
2022/05/12 19:43:12;;;;;;;3.07;1.80;;;;;;;;;;4899808;29;20186;-77
2022/05/12 19:45:39;;;;;;;1.90;1.70;;;;;;;;;;4899913;29;20187;-77
2022/05/12 19:48:06;;;;;;;2.00;1.80;;;;;;;;;;4899793;29;20214;-77
2022/05/12 19:50:32;;;;;;;2.30;1.80;;;;;;;;;;4899898;29;20579;-77
2022/05/12 19:52:59;;;;;;;3.17;2.30;;;;;;;;;;4899458;29;20179;-77
2022/05/12 19:55:25;;;;;;;2.73;1.80;;;;;;;;;;4899880;29;20194;-77
2022/05/12 19:57:51;;;;;;;3.77;1.83;;;;;;;;;;4884327;29;20185;-77
2022/05/12 20:00:19;;;;;;;3.97;2.00;;;;;;;;;;4884478;29;20562;-77
2022/05/12 20:02:45;;;;;;;2.90;2.10;;;;;;;;;;4916444;29;20174;-77
2022/05/12 20:05:11;;;;;;;2.70;1.70;;;;;;;;;;4884322;29;20698;-77
2022/05/12 20:07:38;;;;;;;2.50;1.87;;;;;;;;;;4899836;29;20178;-77